Time;durP1;ratioP1;P1;durP2;ratioP2;P2;SDS_P1;SDS_P2;PMS_P1;PMS_P2;Temp;Humidity;BMP_temperature;BMP_pressure;BME280_temperature;BME280_humidity;BME280_pressure;Samples;Min_cycle;Max_cycle;Signal;HPM_P1;HPM_P2
2021/12/30 00:00:53;;;;;;;1.43;0.90;;;14.00;99.90;;;;;;4977075;28;20929;-63
2021/12/30 00:03:19;;;;;;;2.20;0.70;;;14.00;99.90;;;;;;4976909;28;20419;-63
2021/12/30 00:05:45;;;;;;;0.70;0.70;;;13.90;99.90;;;;;;4975523;28;20967;-59
2021/12/30 00:08:11;;;;;;;1.00;0.67;;;13.90;99.90;;;;;;4976931;28;20630;-62
2021/12/30 00:10:37;;;;;;;0.80;0.60;;;13.90;99.90;;;;;;4976610;28;20939;-63
2021/12/30 00:13:04;;;;;;;0.87;0.70;;;13.90;99.90;;;;;;4976653;28;20312;-63
2021/12/30 00:15:29;;;;;;;1.10;0.60;;;13.80;99.90;;;;;;4976649;28;20400;-63
2021/12/30 00:17:55;;;;;;;1.00;0.80;;;13.80;99.90;;;;;;4976595;28;20772;-63
2021/12/30 00:20:22;;;;;;;0.70;0.60;;;13.70;99.90;;;;;;4975840;28;20565;-62
2021/12/30 00:22:48;;;;;;;1.00;0.60;;;13.80;99.90;;;;;;4976732;28;20415;-63
2021/12/30 00:25:15;;;;;;;1.87;0.80;;;13.90;99.90;;;;;;4976759;28;20414;-63
2021/12/30 00:27:41;;;;;;;3.20;0.73;;;13.90;99.90;;;;;;4976335;28;20444;-63
2021/12/30 00:30:10;;;;;;;0.80;0.60;;;13.90;99.90;;;;;;4976336;28;20412;-63
2021/12/30 00:32:35;;;;;;;1.17;0.80;;;13.90;99.90;;;;;;4975530;28;20454;-63
2021/12/30 00:35:01;;;;;;;1.87;0.90;;;13.90;99.90;;;;;;4976596;28;20454;-63
2021/12/30 00:37:27;;;;;;;1.37;1.00;;;14.00;99.90;;;;;;4976268;28;20164;-63
2021/12/30 00:39:53;;;;;;;2.60;0.90;;;14.00;99.90;;;;;;4976542;28;20404;-63
2021/12/30 00:42:18;;;;;;;1.37;0.80;;;13.90;99.90;;;;;;4976415;28;20183;-63
2021/12/30 00:44:44;;;;;;;1.60;0.90;;;13.90;99.90;;;;;;4976048;28;20868;-63
2021/12/30 00:47:10;;;;;;;1.83;0.70;;;13.90;99.90;;;;;;4976009;28;20293;-63
2021/12/30 00:49:35;;;;;;;0.83;0.60;;;14.00;99.90;;;;;;4976039;28;20175;-63
2021/12/30 00:52:01;;;;;;;1.03;0.90;;;14.00;99.90;;;;;;4975876;28;20189;-62
2021/12/30 00:54:27;;;;;;;2.53;0.90;;;13.90;99.90;;;;;;4975787;28;20173;-62
2021/12/30 00:56:52;;;;;;;2.30;0.80;;;13.80;99.90;;;;;;4975786;28;20269;-63
2021/12/30 00:59:18;;;;;;;1.87;0.90;;;13.90;99.90;;;;;;4975777;28;20422;-63
2021/12/30 01:01:44;;;;;;;1.23;0.87;;;14.00;99.90;;;;;;4976158;28;20557;-63
2021/12/30 01:04:10;;;;;;;1.27;0.90;;;13.90;99.90;;;;;;4975650;28;20285;-63
2021/12/30 01:06:36;;;;;;;1.10;0.80;;;13.90;99.90;;;;;;4975868;28;20205;-63
2021/12/30 01:09:03;;;;;;;0.80;0.80;;;13.90;99.90;;;;;;4975625;28;20406;-63
2021/12/30 01:11:29;;;;;;;1.30;0.87;;;13.90;99.90;;;;;;4975498;28;20278;-58
2021/12/30 01:14:05;;;;;;;1.67;0.80;;;13.80;99.90;;;;;;4976559;28;20445;-62
2021/12/30 01:16:36;;;;;;;1.67;0.70;;;13.90;99.90;;;;;;4975820;28;20156;-62
2021/12/30 01:21:46;;;;;;;1.77;0.97;;;13.80;99.90;;;;;;4975676;28;20430;-62
2021/12/30 01:24:12;;;;;;;1.07;0.77;;;13.90;99.90;;;;;;4975390;28;20434;-58
2021/12/30 01:26:37;;;;;;;1.30;0.87;;;14.00;99.90;;;;;;4975180;28;20441;-62
2021/12/30 01:29:03;;;;;;;1.50;0.83;;;13.90;99.90;;;;;;4975245;28;20258;-62
2021/12/30 01:31:29;;;;;;;1.70;0.90;;;13.90;99.90;;;;;;4975067;28;20210;-62
2021/12/30 01:33:55;;;;;;;1.97;0.97;;;14.00;99.90;;;;;;4975176;28;20409;-62
2021/12/30 01:36:21;;;;;;;1.63;0.93;;;14.00;99.90;;;;;;4975098;28;20639;-62
2021/12/30 01:38:47;;;;;;;1.47;0.90;;;14.00;99.90;;;;;;4975124;28;20187;-62
2021/12/30 01:41:13;;;;;;;1.10;0.80;;;13.90;99.90;;;;;;4974774;28;20436;-62
2021/12/30 01:43:39;;;;;;;2.23;0.90;;;14.10;99.90;;;;;;4975427;28;20207;-62
2021/12/30 01:46:06;;;;;;;1.20;0.77;;;14.10;99.90;;;;;;4975174;28;20957;-61
2021/12/30 01:48:32;;;;;;;1.83;0.93;;;14.10;99.90;;;;;;4975293;28;20410;-62
2021/12/30 01:50:58;;;;;;;0.90;0.80;;;14.10;99.90;;;;;;4974924;28;20485;-62
2021/12/30 01:53:24;;;;;;;1.13;0.60;;;13.90;99.90;;;;;;4975065;28;20170;-62
2021/12/30 01:55:50;;;;;;;1.93;0.70;;;13.80;99.90;;;;;;4974978;28;20415;-62
2021/12/30 01:58:16;;;;;;;3.83;1.10;;;13.70;99.90;;;;;;4975053;28;20186;-62
2021/12/30 02:00:45;;;;;;;2.53;1.13;;;13.80;99.90;;;;;;4974808;28;20191;-62
2021/12/30 02:03:11;;;;;;;0.70;0.60;;;13.80;99.90;;;;;;4975036;28;20841;-62
2021/12/30 02:05:38;;;;;;;1.10;0.90;;;13.80;99.90;;;;;;4974561;28;20466;-63
2021/12/30 02:08:11;;;;;;;1.47;1.20;;;13.70;99.90;;;;;;4974612;28;20922;-60
2021/12/30 02:10:37;;;;;;;1.60;1.00;;;13.60;99.90;;;;;;4974828;28;20431;-63
2021/12/30 02:13:03;;;;;;;1.50;0.90;;;13.60;99.90;;;;;;4975445;28;20413;-63
2021/12/30 02:15:28;;;;;;;1.10;0.90;;;13.60;99.90;;;;;;4974639;28;20170;-63
2021/12/30 02:17:54;;;;;;;2.90;1.10;;;13.60;99.90;;;;;;4974546;28;20405;-64
2021/12/30 02:20:40;;;;;;;3.20;1.27;;;13.70;99.90;;;;;;4974719;28;20200;-62
2021/12/30 02:23:06;;;;;;;2.23;1.23;;;13.70;99.90;;;;;;4974872;28;20412;-61
2021/12/30 02:25:32;;;;;;;3.30;1.20;;;13.80;99.90;;;;;;4974279;28;20499;-61
2021/12/30 02:27:57;;;;;;;2.60;1.03;;;13.60;99.90;;;;;;4974364;28;20420;-63
2021/12/30 02:30:23;;;;;;;2.07;1.13;;;13.70;99.90;;;;;;4974457;28;20210;-63
2021/12/30 02:32:48;;;;;;;2.40;1.07;;;13.70;99.90;;;;;;4974843;28;20162;-63
2021/12/30 02:35:14;;;;;;;2.87;1.77;;;13.80;99.90;;;;;;4974612;28;20210;-63
2021/12/30 02:37:40;;;;;;;2.70;0.90;;;13.70;99.90;;;;;;4974753;28;20176;-62
2021/12/30 02:40:06;;;;;;;2.20;1.07;;;13.80;99.90;;;;;;4974280;28;20173;-63
2021/12/30 02:42:32;;;;;;;1.57;0.70;;;13.70;99.90;;;;;;4975045;28;20203;-63
2021/12/30 02:44:57;;;;;;;3.13;1.10;;;13.70;99.90;;;;;;4978227;28;20902;-63
2021/12/30 02:47:23;;;;;;;1.40;0.70;;;13.70;99.90;;;;;;4978149;28;20283;-62
2021/12/30 02:49:48;;;;;;;2.97;1.17;;;13.70;99.90;;;;;;4978128;28;20177;-63
2021/12/30 02:52:14;;;;;;;2.97;0.83;;;13.70;99.90;;;;;;4977956;28;20196;-62
2021/12/30 02:54:43;;;;;;;1.67;0.90;;;13.80;99.90;;;;;;4978448;28;20187;-63
2021/12/30 02:57:10;;;;;;;1.47;0.90;;;13.90;99.90;;;;;;4978321;28;20256;-61
2021/12/30 02:59:36;;;;;;;2.60;0.80;;;13.80;99.90;;;;;;4978206;28;20957;-63
2021/12/30 03:02:03;;;;;;;2.57;1.07;;;13.90;99.90;;;;;;4977880;28;20430;-63
2021/12/30 03:04:29;;;;;;;1.40;1.07;;;13.80;99.90;;;;;;4977940;28;20404;-63
2021/12/30 03:06:56;;;;;;;2.40;1.00;;;14.00;99.90;;;;;;4978109;28;20451;-63
2021/12/30 03:09:22;;;;;;;2.50;1.10;;;14.00;99.90;;;;;;4977933;28;20496;-63
2021/12/30 03:11:48;;;;;;;2.77;1.00;;;14.20;99.90;;;;;;4977734;28;20690;-63
2021/12/30 03:14:13;;;;;;;1.90;0.77;;;14.30;99.90;;;;;;4978003;28;20219;-63
2021/12/30 03:16:42;;;;;;;1.00;0.73;;;14.30;99.90;;;;;;4978153;28;20173;-63
2021/12/30 03:19:07;;;;;;;1.83;1.00;;;14.20;99.90;;;;;;4978033;28;20534;-63
2021/12/30 03:21:33;;;;;;;3.93;0.80;;;14.10;99.90;;;;;;4977657;28;20430;-63
2021/12/30 03:24:01;;;;;;;1.80;0.90;;;14.10;99.90;;;;;;4978234;28;20585;-63
2021/12/30 03:26:26;;;;;;;1.10;0.70;;;14.10;99.90;;;;;;4977585;28;20200;-63
2021/12/30 03:28:52;;;;;;;1.47;0.70;;;14.00;99.90;;;;;;4977737;28;20420;-61
2021/12/30 03:31:20;;;;;;;1.77;0.60;;;13.90;99.90;;;;;;4977270;28;20885;-61
2021/12/30 03:33:46;;;;;;;1.10;0.70;;;14.00;99.90;;;;;;4977268;28;20426;-61
2021/12/30 03:36:13;;;;;;;1.93;0.93;;;14.10;99.90;;;;;;4977576;28;20470;-62
2021/12/30 03:38:43;;;;;;;1.33;0.70;;;14.20;99.90;;;;;;4977667;28;20780;-62
2021/12/30 03:41:11;;;;;;;1.83;0.80;;;14.20;99.90;;;;;;4976479;28;20455;-62
2021/12/30 03:43:37;;;;;;;2.70;0.90;;;14.30;99.90;;;;;;4977286;28;20416;-62
2021/12/30 03:46:04;;;;;;;1.10;0.67;;;14.30;99.90;;;;;;4977105;28;20454;-63
2021/12/30 03:48:35;;;;;;;1.87;0.80;;;14.30;99.90;;;;;;4977170;28;20407;-62
2021/12/30 03:51:06;;;;;;;1.43;1.00;;;14.20;99.90;;;;;;4976958;28;20435;-61
2021/12/30 03:53:37;;;;;;;1.97;0.80;;;14.10;99.90;;;;;;4977094;28;20399;-60
2021/12/30 03:56:04;;;;;;;1.10;0.60;;;14.10;99.90;;;;;;4976391;28;20477;-61
2021/12/30 03:58:30;;;;;;;1.00;0.70;;;14.20;99.90;;;;;;4976940;28;20414;-62
2021/12/30 04:00:56;;;;;;;1.40;0.70;;;14.20;99.90;;;;;;4976932;28;20844;-62
2021/12/30 04:03:21;;;;;;;1.03;0.70;;;14.20;99.90;;;;;;4977313;28;20184;-62
2021/12/30 04:05:47;;;;;;;2.00;0.80;;;14.30;99.90;;;;;;4976667;28;20546;-62
2021/12/30 04:08:12;;;;;;;1.13;0.70;;;14.20;99.90;;;;;;4976766;28;20173;-62
2021/12/30 04:10:38;;;;;;;1.90;0.70;;;14.30;99.90;;;;;;4976866;28;20197;-63
2021/12/30 04:13:04;;;;;;;1.03;0.60;;;14.30;99.90;;;;;;4976628;28;20179;-62
2021/12/30 04:15:29;;;;;;;2.00;0.70;;;14.30;99.90;;;;;;4976686;28;20251;-62
2021/12/30 04:17:55;;;;;;;1.00;0.60;;;14.20;99.90;;;;;;4976563;28;20175;-63
2021/12/30 04:20:20;;;;;;;0.90;0.60;;;14.30;99.90;;;;;;4976564;28;20275;-61
2021/12/30 04:22:46;;;;;;;1.10;1.00;;;14.40;99.90;;;;;;4976805;28;20222;-61
2021/12/30 04:25:14;;;;;;;1.80;0.60;;;14.40;99.90;;;;;;4977041;28;20532;-62
2021/12/30 04:27:40;;;;;;;1.17;0.80;;;14.40;99.90;;;;;;4976412;28;20664;-62
2021/12/30 04:30:07;;;;;;;1.20;0.60;;;14.30;99.90;;;;;;4976418;28;20498;-63
2021/12/30 04:32:33;;;;;;;2.03;0.90;;;14.30;99.90;;;;;;5017426;23;20511;-63
2021/12/30 04:34:58;;;;;;;2.10;0.87;;;14.40;99.90;;;;;;4996125;28;20927;-63
2021/12/30 04:37:24;;;;;;;2.03;0.60;;;14.50;99.90;;;;;;4995956;28;20258;-63
2021/12/30 04:39:50;;;;;;;2.53;0.83;;;14.40;99.90;;;;;;4995823;28;20198;-63
2021/12/30 04:42:15;;;;;;;2.47;0.73;;;14.40;99.90;;;;;;4995432;28;20207;-63
2021/12/30 04:44:43;;;;;;;1.30;0.70;;;14.30;99.90;;;;;;4995692;28;20172;-64
2021/12/30 04:47:09;;;;;;;1.83;0.63;;;14.40;99.90;;;;;;4995706;28;20197;-62
2021/12/30 04:49:35;;;;;;;1.13;0.60;;;14.30;99.90;;;;;;4995704;28;20421;-63
2021/12/30 04:52:00;;;;;;;1.43;0.77;;;14.40;99.90;;;;;;4995334;28;20192;-63
2021/12/30 04:54:26;;;;;;;0.80;0.60;;;14.40;99.90;;;;;;4995485;28;20226;-63
2021/12/30 04:56:51;;;;;;;0.70;0.50;;;14.30;99.90;;;;;;4995256;28;20650;-63
2021/12/30 04:59:17;;;;;;;0.90;0.70;;;14.20;99.90;;;;;;4995196;28;20172;-63
2021/12/30 05:01:43;;;;;;;1.23;0.70;;;14.20;99.90;;;;;;4995278;28;20253;-63
2021/12/30 05:04:08;;;;;;;0.83;0.50;;;14.30;99.90;;;;;;4995432;28;20447;-63
2021/12/30 05:06:36;;;;;;;0.90;0.60;;;14.40;99.90;;;;;;4994610;28;20234;-63
2021/12/30 05:09:02;;;;;;;0.70;0.60;;;14.30;99.90;;;;;;4995016;28;20641;-62
2021/12/30 05:11:28;;;;;;;1.10;0.50;;;14.30;99.90;;;;;;4995191;28;20431;-63
2021/12/30 05:13:53;;;;;;;0.80;0.50;;;14.30;99.90;;;;;;4994990;28;20774;-63
2021/12/30 05:16:19;;;;;;;1.20;0.60;;;14.20;99.90;;;;;;4994726;28;20172;-63
2021/12/30 05:18:46;;;;;;;1.30;0.50;;;14.20;99.90;;;;;;4994758;28;20233;-63
2021/12/30 05:21:12;;;;;;;0.70;0.53;;;14.40;99.90;;;;;;4994973;28;20196;-63
2021/12/30 05:23:38;;;;;;;0.87;0.50;;;14.40;99.90;;;;;;4994733;28;20415;-63
2021/12/30 05:26:04;;;;;;;0.70;0.50;;;14.30;99.90;;;;;;4994617;28;20643;-63
2021/12/30 05:28:30;;;;;;;1.00;0.50;;;14.30;99.90;;;;;;4994548;28;20407;-63
2021/12/30 05:30:55;;;;;;;2.13;0.50;;;14.20;99.90;;;;;;4994804;28;20208;-63
2021/12/30 05:33:21;;;;;;;0.70;0.60;;;14.30;99.90;;;;;;4994755;28;20242;-63
2021/12/30 05:35:47;;;;;;;1.43;0.90;;;14.40;99.90;;;;;;4994768;28;20171;-63
2021/12/30 05:38:16;;;;;;;0.93;0.67;;;14.30;99.90;;;;;;4994692;28;20537;-62
2021/12/30 05:40:42;;;;;;;0.70;0.50;;;14.40;99.90;;;;;;4994261;28;20666;-63
2021/12/30 05:43:08;;;;;;;0.80;0.57;;;14.40;99.90;;;;;;4994576;28;20431;-63
2021/12/30 05:45:34;;;;;;;1.03;0.50;;;14.50;99.90;;;;;;4994235;28;20437;-63
2021/12/30 05:47:59;;;;;;;1.77;0.70;;;14.50;99.90;;;;;;4994430;28;20955;-63
2021/12/30 05:50:28;;;;;;;0.80;0.50;;;14.40;99.90;;;;;;4994825;28;20677;-63
2021/12/30 05:52:54;;;;;;;0.70;0.40;;;14.30;99.90;;;;;;4994206;28;20164;-63
2021/12/30 05:55:20;;;;;;;0.70;0.50;;;14.30;99.90;;;;;;4994036;28;20465;-63
2021/12/30 05:57:46;;;;;;;0.90;0.43;;;14.40;99.90;;;;;;4994174;28;20414;-63
2021/12/30 06:00:16;;;;;;;0.70;0.50;;;14.40;99.90;;;;;;4994378;28;20958;-63
2021/12/30 06:02:42;;;;;;;0.70;0.40;;;14.60;99.90;;;;;;4993949;28;20420;-63
2021/12/30 06:05:08;;;;;;;0.70;0.50;;;14.60;99.90;;;;;;4994006;28;20909;-63
2021/12/30 06:07:34;;;;;;;1.10;0.60;;;14.60;99.90;;;;;;4993978;28;20439;-63
2021/12/30 06:10:00;;;;;;;1.33;0.50;;;14.40;99.90;;;;;;4994169;28;20415;-63
2021/12/30 06:12:25;;;;;;;0.70;0.50;;;14.40;99.90;;;;;;4993867;28;20259;-63
2021/12/30 06:14:51;;;;;;;1.53;0.50;;;14.50;99.90;;;;;;4993890;28;20616;-63
2021/12/30 06:17:17;;;;;;;1.83;0.60;;;14.60;99.90;;;;;;4993240;28;20175;-63
2021/12/30 06:19:43;;;;;;;0.70;0.40;;;14.50;99.90;;;;;;4994000;28;20175;-63
2021/12/30 06:22:12;;;;;;;1.10;0.60;;;14.50;99.90;;;;;;4993733;28;20203;-63
2021/12/30 06:24:39;;;;;;;3.00;0.50;;;14.10;99.90;;;;;;4993643;28;20790;-63
2021/12/30 06:27:05;;;;;;;0.97;0.60;;;14.00;99.90;;;;;;4993669;28;20882;-63
2021/12/30 06:29:34;;;;;;;2.03;0.50;;;14.20;99.90;;;;;;4993678;28;20481;-63
2021/12/30 06:32:00;;;;;;;0.60;0.40;;;14.20;99.90;;;;;;4993490;28;20448;-62
2021/12/30 06:34:25;;;;;;;1.10;0.70;;;14.20;99.90;;;;;;4993764;28;20971;-62
2021/12/30 06:36:51;;;;;;;1.10;0.70;;;14.30;99.90;;;;;;4993542;28;20503;-62
2021/12/30 06:39:16;;;;;;;0.80;0.50;;;14.20;99.90;;;;;;4993540;28;20552;-62
2021/12/30 06:41:42;;;;;;;0.70;0.47;;;14.30;99.90;;;;;;4993666;28;20305;-62
2021/12/30 06:44:08;;;;;;;0.67;0.50;;;14.40;99.90;;;;;;4993610;28;20206;-63
2021/12/30 06:46:34;;;;;;;0.63;0.50;;;14.40;99.90;;;;;;4993774;28;20209;-62
2021/12/30 06:48:59;;;;;;;1.03;0.60;;;14.30;99.90;;;;;;4993778;28;20255;-63
2021/12/30 06:51:27;;;;;;;0.70;0.50;;;14.30;99.90;;;;;;4993404;28;20503;-62
2021/12/30 06:53:55;;;;;;;0.80;0.60;;;14.40;99.90;;;;;;4993611;28;20520;-62
2021/12/30 06:56:23;;;;;;;0.93;0.50;;;14.40;99.90;;;;;;4993625;28;20413;-62
2021/12/30 06:58:49;;;;;;;1.00;0.60;;;14.40;99.90;;;;;;4993783;28;20446;-62
2021/12/30 07:01:15;;;;;;;0.97;0.50;;;14.40;99.90;;;;;;4994014;28;20576;-62
2021/12/30 07:03:40;;;;;;;1.17;0.50;;;14.40;99.90;;;;;;4993398;28;20420;-63
2021/12/30 07:06:07;;;;;;;1.10;0.60;;;14.30;99.90;;;;;;4993426;28;20333;-62
2021/12/30 07:08:32;;;;;;;0.80;0.50;;;14.30;99.90;;;;;;4993472;28;20545;-62
2021/12/30 07:10:58;;;;;;;1.00;0.73;;;14.20;99.90;;;;;;4993337;28;20429;-61
2021/12/30 07:13:24;;;;;;;1.57;0.90;;;14.10;99.90;;;;;;4993863;28;20696;-61
2021/12/30 07:15:49;;;;;;;0.90;0.70;;;14.10;99.90;;;;;;4993420;28;20172;-61
2021/12/30 07:18:15;;;;;;;0.73;0.53;;;14.10;99.90;;;;;;4993346;28;20275;-61
2021/12/30 07:20:41;;;;;;;1.00;0.70;;;14.20;99.90;;;;;;4993592;28;20171;-61
2021/12/30 07:23:06;;;;;;;0.80;0.50;;;14.30;99.90;;;;;;4993667;28;20179;-61
2021/12/30 07:25:32;;;;;;;0.70;0.60;;;14.20;99.90;;;;;;4993250;28;20169;-62
2021/12/30 07:27:58;;;;;;;0.70;0.40;;;14.30;99.90;;;;;;4993445;28;20195;-61
2021/12/30 07:30:25;;;;;;;1.40;1.30;;;14.20;99.90;;;;;;4996231;28;20174;-62
2021/12/30 07:32:51;;;;;;;1.77;1.13;;;14.30;99.90;;;;;;4996602;28;20211;-62
2021/12/30 07:35:18;;;;;;;1.00;0.87;;;14.30;99.90;;;;;;4996580;28;20442;-62
2021/12/30 07:37:45;;;;;;;0.83;0.70;;;14.30;99.90;;;;;;4996540;28;20417;-62
2021/12/30 07:40:11;;;;;;;0.70;0.60;;;14.20;99.90;;;;;;4996797;28;20899;-62
2021/12/30 07:42:37;;;;;;;0.80;0.50;;;14.30;99.90;;;;;;4996722;28;20432;-62
2021/12/30 07:45:04;;;;;;;0.80;0.67;;;14.30;99.90;;;;;;4996387;28;20897;-62
2021/12/30 07:47:30;;;;;;;0.70;0.50;;;14.40;99.90;;;;;;4996534;28;20196;-62
2021/12/30 07:49:55;;;;;;;0.70;0.60;;;14.30;99.90;;;;;;4996418;28;20412;-62
2021/12/30 07:52:21;;;;;;;0.63;0.50;;;14.20;99.90;;;;;;4996281;28;20195;-62
2021/12/30 07:54:47;;;;;;;1.43;1.23;;;14.20;99.90;;;;;;4996814;28;20168;-62
2021/12/30 07:57:23;;;;;;;0.80;0.63;;;14.20;99.90;;;;;;4996533;28;20180;-62
2021/12/30 07:59:50;;;;;;;0.90;0.50;;;14.30;99.90;;;;;;4996534;28;20164;-62
2021/12/30 08:02:15;;;;;;;1.03;0.50;;;14.30;99.90;;;;;;4996261;28;20446;-62
2021/12/30 08:04:41;;;;;;;0.90;0.60;;;14.20;99.90;;;;;;4996029;28;20419;-62
2021/12/30 08:07:07;;;;;;;0.90;0.53;;;14.20;99.90;;;;;;4996256;28;20198;-62
2021/12/30 08:09:33;;;;;;;0.63;0.50;;;14.20;99.90;;;;;;4995848;28;20166;-62
2021/12/30 08:11:59;;;;;;;0.70;0.50;;;14.30;99.90;;;;;;4995744;28;20218;-62
2021/12/30 08:14:25;;;;;;;0.70;0.50;;;14.50;99.90;;;;;;4996022;28;20174;-62
2021/12/30 08:16:51;;;;;;;0.70;0.50;;;14.60;99.90;;;;;;4995955;28;20424;-62
2021/12/30 08:19:16;;;;;;;0.60;0.50;;;14.60;99.90;;;;;;4995806;28;20785;-62
2021/12/30 08:21:42;;;;;;;0.70;0.50;;;14.70;99.90;;;;;;4995786;28;20199;-62
2021/12/30 08:24:09;;;;;;;0.70;0.60;;;14.80;99.90;;;;;;4995726;28;20176;-63
2021/12/30 08:26:35;;;;;;;0.70;0.60;;;14.70;99.90;;;;;;4995833;28;20254;-61
2021/12/30 08:29:00;;;;;;;1.00;0.60;;;14.70;99.90;;;;;;4995654;28;20415;-62
2021/12/30 08:31:26;;;;;;;0.73;0.50;;;14.70;99.90;;;;;;4995509;28;20820;-62
2021/12/30 08:33:52;;;;;;;0.80;0.57;;;14.70;99.90;;;;;;4995702;28;20173;-62
2021/12/30 08:36:18;;;;;;;0.80;0.50;;;14.80;99.90;;;;;;4995618;28;20609;-62
2021/12/30 08:38:43;;;;;;;0.70;0.50;;;14.80;99.90;;;;;;4995528;28;20179;-62
2021/12/30 08:41:09;;;;;;;1.73;0.70;;;14.90;99.90;;;;;;4995528;28;20434;-61
2021/12/30 08:43:35;;;;;;;0.80;0.53;;;14.80;99.90;;;;;;4995722;28;20181;-60
2021/12/30 08:46:01;;;;;;;0.70;0.43;;;14.80;99.90;;;;;;4995267;28;20492;-62
2021/12/30 08:48:26;;;;;;;1.00;0.60;;;14.80;99.90;;;;;;4995510;28;20258;-62
2021/12/30 08:50:52;;;;;;;1.03;0.60;;;14.60;99.90;;;;;;4995339;28;20188;-62
2021/12/30 08:53:17;;;;;;;0.70;0.50;;;14.70;99.90;;;;;;4995369;28;20181;-62
2021/12/30 08:55:44;;;;;;;0.90;0.60;;;14.60;99.90;;;;;;4995828;28;20625;-62
2021/12/30 08:58:09;;;;;;;2.80;0.50;;;14.60;99.90;;;;;;4995474;28;20253;-62
2021/12/30 09:00:38;;;;;;;0.70;0.50;;;14.60;99.90;;;;;;4995009;28;20939;-62
2021/12/30 09:03:05;;;;;;;0.80;0.50;;;14.60;99.90;;;;;;4995055;28;20177;-62
2021/12/30 09:05:32;;;;;;;0.70;0.50;;;14.60;99.90;;;;;;4995489;28;20404;-61
2021/12/30 09:07:58;;;;;;;0.80;0.60;;;14.80;99.90;;;;;;4995482;28;20444;-62
2021/12/30 09:10:25;;;;;;;0.80;0.50;;;14.80;99.90;;;;;;4995408;28;20453;-63
2021/12/30 09:12:52;;;;;;;0.70;0.50;;;14.70;99.90;;;;;;4994874;28;20192;-63
2021/12/30 09:15:20;;;;;;;1.00;0.47;;;14.80;99.90;;;;;;4994778;28;20402;-62
2021/12/30 09:17:47;;;;;;;0.70;0.50;;;15.00;99.90;;;;;;4994714;28;20414;-62
2021/12/30 09:20:14;;;;;;;0.60;0.47;;;14.90;99.90;;;;;;4994997;28;20824;-63
2021/12/30 09:22:40;;;;;;;0.70;0.40;;;15.00;99.90;;;;;;4994592;28;20488;-63
2021/12/30 09:25:09;;;;;;;1.37;0.50;;;15.00;99.90;;;;;;4994551;28;20419;-63
2021/12/30 09:27:40;;;;;;;0.70;0.50;;;15.10;99.90;;;;;;4994664;28;20449;-63
2021/12/30 09:30:09;;;;;;;0.93;0.50;;;15.30;99.90;;;;;;4994919;28;20407;-62
2021/12/30 09:32:35;;;;;;;1.80;0.70;;;15.30;99.90;;;;;;4994357;28;20442;-61
2021/12/30 09:35:02;;;;;;;0.80;0.50;;;15.30;99.90;;;;;;4994593;28;20434;-62
2021/12/30 09:37:27;;;;;;;0.80;0.40;;;15.40;99.90;;;;;;4994493;28;20174;-63
2021/12/30 09:39:54;;;;;;;1.27;0.70;;;15.50;99.90;;;;;;4994623;28;20416;-63
2021/12/30 09:42:20;;;;;;;0.83;0.40;;;15.50;99.90;;;;;;4994320;28;20279;-63
2021/12/30 09:44:46;;;;;;;0.63;0.40;;;15.30;99.90;;;;;;4994624;28;20405;-63
2021/12/30 09:47:12;;;;;;;1.77;0.70;;;15.40;99.90;;;;;;4994194;28;20452;-63
2021/12/30 09:49:37;;;;;;;0.70;0.60;;;15.60;99.90;;;;;;4994324;28;20176;-63
2021/12/30 09:52:04;;;;;;;0.87;0.70;;;15.60;99.90;;;;;;4992276;28;20219;-62
2021/12/30 09:54:30;;;;;;;1.17;0.60;;;15.80;99.90;;;;;;4995020;28;20180;-63
2021/12/30 09:56:56;;;;;;;0.80;0.60;;;15.90;99.90;;;;;;4994393;28;20442;-63
2021/12/30 09:59:26;;;;;;;1.80;0.80;;;16.00;99.90;;;;;;4992784;28;20511;-63
2021/12/30 10:01:52;;;;;;;1.43;0.60;;;16.00;99.90;;;;;;4994234;28;20194;-62
2021/12/30 10:04:18;;;;;;;0.70;0.50;;;16.00;99.90;;;;;;4993932;28;20982;-62
2021/12/30 10:06:46;;;;;;;0.70;0.60;;;16.00;99.90;;;;;;4993999;28;20451;-62
2021/12/30 10:09:14;;;;;;;0.80;0.60;;;16.00;99.90;;;;;;4993950;28;20414;-62
2021/12/30 10:11:52;;;;;;;0.70;0.53;;;16.00;99.90;;;;;;4993855;28;20451;-62
2021/12/30 10:14:39;;;;;;;1.33;0.93;;;15.90;99.90;;;;;;4993803;28;20391;-62
2021/12/30 10:17:20;;;;;;;0.97;0.73;;;16.00;99.90;;;;;;4993845;28;20384;-62
2021/12/30 10:19:47;;;;;;;0.80;0.60;;;16.00;99.90;;;;;;4993812;28;20398;-62
2021/12/30 10:22:16;;;;;;;1.00;0.80;;;16.20;99.90;;;;;;4993831;28;20451;-62
2021/12/30 10:24:43;;;;;;;0.97;0.70;;;16.40;99.90;;;;;;4993741;28;20493;-61
2021/12/30 10:27:20;;;;;;;0.90;0.60;;;16.40;99.90;;;;;;4992389;28;20589;-62
2021/12/30 10:29:48;;;;;;;0.90;0.63;;;16.50;99.90;;;;;;4993894;28;20389;-62
2021/12/30 10:32:16;;;;;;;1.10;0.60;;;16.40;99.90;;;;;;5017552;23;20492;-62
2021/12/30 10:35:02;;;;;;;0.70;0.60;;;16.50;99.90;;;;;;4995120;28;20403;-63
2021/12/30 10:37:27;;;;;;;1.00;0.70;;;16.60;99.90;;;;;;4994612;28;20415;-64
2021/12/30 10:39:53;;;;;;;0.70;0.50;;;16.60;99.90;;;;;;4995030;28;20402;-62
2021/12/30 10:42:21;;;;;;;2.13;0.70;;;16.50;99.90;;;;;;4994846;28;20202;-62
2021/12/30 10:44:59;;;;;;;1.03;0.70;;;16.60;99.90;;;;;;4995114;28;20545;-62
2021/12/30 10:47:49;;;;;;;0.77;0.57;;;16.80;99.90;;;;;;4994448;28;20454;-61
2021/12/30 10:50:15;;;;;;;0.90;0.67;;;17.00;99.90;;;;;;4995390;28;20747;-62
2021/12/30 10:52:49;;;;;;;1.13;0.73;;;17.00;99.90;;;;;;4994979;28;20423;-62
2021/12/30 10:55:16;;;;;;;0.90;0.70;;;17.20;99.90;;;;;;4995312;28;20168;-63
2021/12/30 10:57:41;;;;;;;0.73;0.60;;;17.30;99.90;;;;;;4994760;28;20411;-62
2021/12/30 11:00:08;;;;;;;1.10;0.70;;;17.20;99.90;;;;;;4994683;28;20772;-63
2021/12/30 11:02:35;;;;;;;0.70;0.60;;;17.60;99.90;;;;;;4995359;28;20208;-63
2021/12/30 11:05:08;;;;;;;0.80;0.60;;;17.80;99.90;;;;;;4998636;28;20411;-61
2021/12/30 11:07:46;;;;;;;1.27;0.50;;;18.20;99.90;;;;;;4999557;28;20486;-63
2021/12/30 11:10:13;;;;;;;1.77;0.77;;;18.70;99.90;;;;;;4998848;28;20392;-62
2021/12/30 11:12:45;;;;;;;0.80;0.50;;;18.40;99.90;;;;;;4998101;28;20442;-63
2021/12/30 11:15:25;;;;;;;0.70;0.50;;;17.90;99.90;;;;;;4998568;28;20387;-62
2021/12/30 11:18:04;;;;;;;0.90;0.60;;;17.90;99.90;;;;;;4998137;28;20426;-62
2021/12/30 11:20:45;;;;;;;1.50;0.60;;;18.20;99.90;;;;;;4998290;28;20391;-62
2021/12/30 11:23:12;;;;;;;0.90;0.60;;;19.20;99.90;;;;;;4997451;28;20445;-61
2021/12/30 11:25:38;;;;;;;0.77;0.50;;;19.40;99.90;;;;;;4997630;28;20408;-63
2021/12/30 11:28:04;;;;;;;0.70;0.50;;;19.60;99.90;;;;;;4997609;28;20578;-62
2021/12/30 11:30:29;;;;;;;0.70;0.50;;;19.60;99.90;;;;;;4997246;28;20165;-62
2021/12/30 11:32:55;;;;;;;1.03;0.40;;;19.50;99.90;;;;;;4997113;28;20681;-61
2021/12/30 11:35:24;;;;;;;1.00;0.60;;;19.00;99.90;;;;;;4997749;28;20169;-62
2021/12/30 11:37:50;;;;;;;1.00;0.50;;;18.30;99.90;;;;;;4997903;28;20168;-62
2021/12/30 11:40:21;;;;;;;0.90;0.50;;;18.50;99.90;;;;;;4997574;28;20423;-62
2021/12/30 11:43:07;;;;;;;0.90;0.60;;;18.70;99.90;;;;;;4997443;28;20434;-62
2021/12/30 11:45:39;;;;;;;0.70;0.60;;;19.10;99.90;;;;;;4997537;28;20395;-62
2021/12/30 11:48:28;;;;;;;0.70;0.53;;;18.80;99.90;;;;;;4997798;28;20451;-63
2021/12/30 11:51:11;;;;;;;0.90;0.60;;;18.80;99.90;;;;;;4997360;28;20483;-62
2021/12/30 11:53:40;;;;;;;0.90;0.50;;;19.10;99.90;;;;;;4997085;28;20395;-63
2021/12/30 11:56:25;;;;;;;1.17;0.77;;;18.90;99.90;;;;;;4997945;28;20487;-63
2021/12/30 11:58:56;;;;;;;0.70;0.43;;;19.10;99.90;;;;;;4997729;28;20863;-62
2021/12/30 12:01:23;;;;;;;0.70;0.50;;;19.00;99.90;;;;;;4997506;28;20423;-64
2021/12/30 12:03:58;;;;;;;0.73;0.50;;;18.60;99.90;;;;;;4997634;28;20411;-64
2021/12/30 12:06:43;;;;;;;0.70;0.50;;;18.70;99.90;;;;;;4997074;28;20443;-63
2021/12/30 12:09:33;;;;;;;0.90;0.50;;;18.50;99.90;;;;;;4997128;28;20392;-63
2021/12/30 12:12:02;;;;;;;0.80;0.50;;;18.30;99.90;;;;;;4996710;28;20518;-63
2021/12/30 12:14:46;;;;;;;0.80;0.50;;;18.20;99.90;;;;;;4996490;28;20420;-61
2021/12/30 12:17:28;;;;;;;0.93;0.50;;;18.40;99.90;;;;;;4996084;28;20446;-58
2021/12/30 12:19:55;;;;;;;1.13;0.53;;;18.40;99.90;;;;;;4996278;28;20873;-62
2021/12/30 12:22:20;;;;;;;0.70;0.40;;;18.50;99.90;;;;;;4996642;28;20431;-61
2021/12/30 12:24:48;;;;;;;0.70;0.50;;;18.70;99.90;;;;;;4996461;28;20881;-61
2021/12/30 12:27:19;;;;;;;0.70;0.50;;;18.90;99.90;;;;;;4996476;28;20192;-63
2021/12/30 12:29:46;;;;;;;0.70;0.40;;;19.10;99.90;;;;;;4996110;28;20454;-63
2021/12/30 12:32:14;;;;;;;0.93;0.60;;;19.10;99.90;;;;;;4995971;28;20454;-63
2021/12/30 12:34:45;;;;;;;1.63;0.90;;;19.20;99.90;;;;;;4996316;28;20960;-63
2021/12/30 12:37:29;;;;;;;1.93;0.60;;;18.80;99.90;;;;;;4996536;28;20422;-63
2021/12/30 12:39:57;;;;;;;0.70;0.60;;;19.00;99.90;;;;;;4996128;28;20408;-63
2021/12/30 12:42:47;;;;;;;0.80;0.50;;;18.90;99.90;;;;;;4996016;28;20963;-63
2021/12/30 12:45:17;;;;;;;0.80;0.53;;;18.50;99.90;;;;;;4996346;28;20408;-63
2021/12/30 12:47:43;;;;;;;1.33;0.90;;;18.20;99.90;;;;;;4996520;28;20590;-62
2021/12/30 12:50:09;;;;;;;0.70;0.50;;;18.20;99.90;;;;;;4996263;28;20456;-63
2021/12/30 12:52:42;;;;;;;0.70;0.50;;;17.90;99.90;;;;;;4996116;28;20195;-63